createdAt,value
2023-05-01T00:00:41.054Z,36.93
2023-05-01T00:03:07.480Z,36.92
2023-05-01T00:05:33.813Z,36.76
2023-05-01T00:08:00.170Z,36.65
2023-05-01T00:10:26.509Z,36.65
2023-05-01T00:12:52.852Z,36.84
2023-05-01T00:15:19.207Z,37.07
2023-05-01T00:17:45.608Z,37.07
2023-05-01T00:20:12.002Z,36.75
2023-05-01T00:22:38.354Z,36.72
2023-05-01T00:25:04.803Z,36.83
2023-05-01T00:27:31.183Z,36.95
2023-05-01T00:29:57.703Z,36.90
2023-05-01T00:32:24.380Z,37.03
2023-05-01T00:34:50.810Z,36.83
2023-05-01T00:37:17.284Z,36.94
2023-05-01T00:39:43.587Z,37.06
2023-05-01T00:42:09.879Z,37.05
2023-05-01T00:44:36.219Z,37.18
2023-05-01T00:47:02.582Z,36.84
2023-05-01T00:49:28.934Z,36.81
2023-05-01T00:51:55.330Z,36.75
2023-05-01T00:54:21.695Z,36.80
2023-05-01T00:56:48.012Z,37.14
2023-05-01T00:59:14.398Z,37.17
2023-05-01T01:01:40.756Z,36.99
2023-05-01T01:04:07.097Z,36.97
2023-05-01T01:06:33.556Z,36.91
2023-05-01T01:08:59.951Z,37.28
2023-05-01T01:11:26.326Z,36.95
2023-05-01T01:13:52.654Z,36.90
2023-05-01T01:16:19.094Z,36.98
2023-05-01T01:18:45.473Z,37.23
2023-05-01T01:21:11.776Z,37.32
2023-05-01T01:23:38.213Z,36.98
2023-05-01T01:26:04.573Z,37.13
2023-05-01T01:28:30.889Z,36.87
2023-05-01T01:30:57.238Z,36.98
2023-05-01T01:33:23.590Z,37.36
2023-05-01T01:35:49.914Z,37.37
2023-05-01T01:38:16.306Z,37.12
2023-05-01T01:40:42.657Z,36.99
2023-05-01T01:43:09.005Z,37.24
2023-05-01T01:45:35.387Z,37.31
2023-05-01T01:48:01.740Z,37.09
2023-05-01T01:50:28.082Z,37.30
2023-05-01T01:52:54.420Z,37.07
2023-05-01T01:55:20.796Z,37.44
2023-05-01T01:57:47.139Z,37.08
2023-05-01T02:00:13.483Z,37.15
2023-05-01T02:02:40.027Z,37.37
2023-05-01T02:05:06.468Z,37.13
2023-05-01T02:07:32.825Z,37.11
2023-05-01T02:09:59.274Z,37.01
2023-05-01T02:12:25.873Z,37.19
2023-05-01T02:14:52.171Z,37.11
2023-05-01T02:17:18.547Z,37.41
2023-05-01T02:19:44.880Z,37.08
2023-05-01T02:22:11.206Z,37.44
2023-05-01T02:24:37.656Z,37.20
2023-05-01T02:27:03.968Z,37.46
2023-05-01T02:29:30.335Z,37.39
2023-05-01T02:31:56.782Z,37.35
2023-05-01T02:34:23.210Z,37.08
2023-05-01T02:36:49.557Z,37.12
2023-05-01T02:39:15.914Z,37.24
2023-05-01T02:41:42.281Z,37.09
2023-05-01T02:44:08.660Z,37.44
2023-05-01T02:46:35.029Z,37.20
2023-05-01T02:49:01.418Z,37.49
2023-05-01T02:51:27.746Z,37.53
2023-05-01T02:53:54.063Z,37.34
2023-05-01T02:56:20.430Z,37.40
2023-05-01T02:58:46.785Z,37.18
2023-05-01T03:01:13.126Z,37.29
2023-05-01T03:03:39.617Z,37.35
2023-05-01T03:06:05.990Z,37.61
2023-05-01T03:08:32.363Z,37.10
2023-05-01T03:10:58.675Z,37.48
2023-05-01T03:13:25.029Z,37.41
2023-05-01T03:15:51.376Z,37.34
2023-05-01T03:18:17.754Z,37.37
2023-05-01T03:20:44.077Z,37.39
2023-05-01T03:23:10.426Z,37.59
2023-05-01T03:25:36.780Z,37.21
2023-05-01T03:28:03.167Z,37.41
2023-05-01T03:30:29.557Z,37.42
2023-05-01T03:32:55.934Z,37.50
2023-05-01T03:35:22.396Z,37.62
2023-05-01T03:37:48.751Z,37.56
2023-05-01T03:40:15.067Z,37.69
2023-05-01T03:42:41.430Z,37.55
2023-05-01T03:45:07.765Z,37.69
2023-05-01T03:47:34.261Z,37.57
2023-05-01T03:50:00.660Z,37.66
2023-05-01T03:52:26.966Z,37.65
2023-05-01T03:54:53.353Z,37.67
2023-05-01T03:57:19.690Z,37.76
2023-05-01T03:59:46.008Z,37.73
2023-05-01T04:02:12.383Z,37.73
2023-05-01T04:04:38.914Z,37.63
2023-05-01T04:07:05.371Z,37.77
2023-05-01T04:09:31.739Z,37.51
2023-05-01T04:11:58.114Z,37.92
2023-05-01T04:14:24.499Z,37.49
2023-05-01T04:16:50.812Z,38.03
2023-05-01T04:19:17.114Z,37.80
2023-05-01T04:21:43.473Z,37.70
2023-05-01T04:24:09.841Z,37.94
2023-05-01T04:26:36.218Z,37.87
2023-05-01T04:29:02.563Z,37.95
2023-05-01T04:31:28.924Z,37.71
2023-05-01T04:33:55.294Z,37.63
2023-05-01T04:36:21.664Z,38.03
2023-05-01T04:38:48.017Z,37.90
2023-05-01T04:41:14.335Z,38.19
2023-05-01T04:43:40.701Z,37.91
2023-05-01T04:46:07.088Z,38.22
2023-05-01T04:48:33.434Z,37.72
2023-05-01T04:50:59.730Z,37.90
2023-05-01T04:53:26.096Z,38.25
2023-05-01T04:55:52.436Z,37.97
2023-05-01T04:58:18.745Z,38.12
2023-05-01T05:00:45.046Z,38.06
2023-05-01T05:03:11.457Z,38.33
2023-05-01T05:05:37.822Z,38.18
2023-05-01T05:08:04.143Z,38.07
2023-05-01T05:10:30.476Z,38.18
2023-05-01T05:12:56.802Z,37.95
2023-05-01T05:15:23.164Z,38.21
2023-05-01T05:17:49.557Z,38.04
2023-05-01T05:20:15.961Z,38.41
2023-05-01T05:22:42.280Z,38.24
2023-05-01T05:25:08.575Z,38.11
2023-05-01T05:27:34.927Z,38.20
2023-05-01T05:30:01.266Z,38.14
2023-05-01T05:32:27.686Z,38.16
2023-05-01T05:34:54.103Z,37.91
2023-05-01T05:37:20.553Z,38.24
2023-05-01T05:39:46.914Z,38.37
2023-05-01T05:42:13.276Z,38.07
2023-05-01T05:44:39.593Z,38.17
2023-05-01T05:47:05.951Z,38.02
2023-05-01T05:49:32.283Z,38.39
2023-05-01T05:51:58.661Z,38.18
2023-05-01T05:54:25.021Z,38.13
2023-05-01T05:56:51.513Z,38.41
2023-05-01T05:59:17.859Z,38.34
2023-05-01T06:01:44.167Z,38.34
2023-05-01T06:04:10.532Z,38.44
2023-05-01T06:06:36.906Z,38.19
2023-05-01T06:09:03.364Z,38.11
2023-05-01T06:11:29.793Z,38.22
2023-05-01T06:13:56.179Z,38.29
2023-05-01T06:16:22.554Z,38.10
2023-05-01T06:18:48.970Z,38.13
2023-05-01T06:21:15.288Z,38.23
2023-05-01T06:23:41.580Z,38.52
2023-05-01T06:26:07.888Z,38.10
2023-05-01T06:28:34.269Z,38.58
2023-05-01T06:31:00.697Z,38.37
2023-05-01T06:33:27.114Z,38.20
2023-05-01T06:35:54.507Z,38.42
2023-05-01T06:38:20.871Z,38.19
2023-05-01T06:40:47.250Z,38.13
2023-05-01T06:43:13.621Z,38.38
2023-05-01T06:45:40.022Z,38.57
2023-05-01T06:48:06.449Z,38.43
2023-05-01T06:50:32.865Z,38.16
2023-05-01T06:52:59.223Z,38.11
2023-05-01T06:55:25.590Z,38.36
2023-05-01T06:57:51.949Z,38.03
2023-05-01T07:00:18.320Z,38.13
2023-05-01T07:02:44.864Z,38.07
2023-05-01T07:05:11.399Z,38.02
2023-05-01T07:07:42.098Z,37.96
2023-05-01T07:10:11.039Z,37.88
2023-05-01T07:12:37.455Z,37.92
2023-05-01T07:15:03.803Z,38.05
2023-05-01T07:17:30.171Z,37.41
2023-05-01T07:19:56.897Z,37.40
2023-05-01T07:22:23.457Z,37.33
2023-05-01T07:24:49.812Z,37.68
2023-05-01T07:27:16.160Z,37.48
2023-05-01T07:29:42.515Z,37.71
2023-05-01T07:32:08.884Z,37.76
2023-05-01T07:34:35.246Z,37.84
2023-05-01T07:37:01.630Z,37.81
2023-05-01T07:39:27.963Z,38.10
2023-05-01T07:41:54.316Z,37.92
2023-05-01T07:44:20.621Z,37.86
2023-05-01T07:46:46.941Z,38.30
2023-05-01T07:49:13.296Z,38.31
2023-05-01T07:51:39.623Z,38.35
2023-05-01T07:54:05.953Z,38.43
2023-05-01T07:56:32.293Z,38.36
2023-05-01T07:58:58.602Z,38.42
2023-05-01T08:01:24.950Z,38.58
2023-05-01T08:03:51.453Z,38.13
2023-05-01T08:06:18.063Z,38.07
2023-05-01T08:08:44.422Z,38.03
2023-05-01T08:11:10.772Z,38.14
2023-05-01T08:13:37.086Z,38.44
2023-05-01T08:16:03.522Z,38.63
2023-05-01T08:18:29.926Z,38.30
2023-05-01T08:20:56.321Z,38.14
2023-05-01T08:23:22.715Z,38.11
2023-05-01T08:25:49.051Z,38.33
2023-05-01T08:28:15.422Z,38.41
2023-05-01T08:30:41.784Z,38.12
2023-05-01T08:33:08.195Z,38.43
2023-05-01T08:35:34.604Z,38.43
2023-05-01T08:38:00.993Z,38.18
2023-05-01T08:40:27.353Z,38.47
2023-05-01T08:42:53.663Z,38.19
2023-05-01T08:45:19.989Z,38.31
2023-05-01T08:47:46.425Z,38.51
2023-05-01T08:50:12.812Z,38.51
2023-05-01T08:52:39.178Z,38.72
2023-05-01T08:55:05.493Z,38.54
2023-05-01T08:57:31.818Z,38.49
2023-05-01T08:59:58.344Z,38.38
2023-05-01T09:02:24.977Z,38.51
2023-05-01T09:04:51.338Z,38.76
2023-05-01T09:07:17.715Z,38.68
2023-05-01T09:09:44.092Z,38.64
2023-05-01T09:12:10.398Z,38.64
2023-05-01T09:14:36.780Z,38.52
2023-05-01T09:17:03.158Z,38.79
2023-05-01T09:19:29.547Z,38.96
2023-05-01T09:21:55.887Z,38.69
2023-05-01T09:24:22.207Z,38.71
2023-05-01T09:26:48.793Z,38.74
2023-05-01T09:29:15.107Z,38.58
2023-05-01T09:31:41.491Z,38.48
2023-05-01T09:34:07.844Z,38.78
2023-05-01T09:36:34.131Z,38.81
2023-05-01T09:39:00.504Z,38.54
2023-05-01T09:41:26.839Z,38.89
2023-05-01T09:43:53.247Z,38.82
2023-05-01T09:46:19.663Z,38.77
2023-05-01T09:48:46.019Z,38.90
2023-05-01T09:51:12.323Z,38.81
2023-05-01T09:53:38.693Z,38.78
2023-05-01T09:56:05.073Z,38.89
2023-05-01T09:58:31.382Z,38.91
2023-05-01T10:00:57.720Z,38.72
2023-05-01T10:03:24.141Z,39.05
2023-05-01T10:05:50.569Z,39.24
2023-05-01T10:08:16.942Z,39.07
2023-05-01T10:10:43.270Z,39.00
2023-05-01T10:13:09.564Z,39.27
2023-05-01T10:15:35.917Z,38.94
2023-05-01T10:18:02.423Z,38.81
2023-05-01T10:20:28.876Z,38.95
2023-05-01T10:22:55.768Z,38.76
2023-05-01T10:25:22.219Z,38.90
2023-05-01T10:27:48.683Z,38.67
2023-05-01T10:30:15.028Z,38.82
2023-05-01T10:32:41.371Z,38.68
2023-05-01T10:35:07.780Z,39.08
2023-05-01T10:37:34.142Z,39.09
2023-05-01T10:40:00.533Z,38.86
2023-05-01T10:42:26.882Z,39.29
2023-05-01T10:44:53.313Z,39.10
2023-05-01T10:47:19.685Z,39.27
2023-05-01T10:49:46.038Z,39.03
2023-05-01T10:52:12.322Z,39.47
2023-05-01T10:54:38.691Z,39.18
2023-05-01T10:57:05.037Z,38.99
2023-05-01T10:59:31.350Z,39.28
2023-05-01T11:01:57.775Z,39.11
2023-05-01T11:04:24.171Z,39.17
2023-05-01T11:06:50.539Z,39.22
2023-05-01T11:09:17.035Z,39.04
2023-05-01T11:11:43.406Z,39.18
2023-05-01T11:14:09.710Z,39.29
2023-05-01T11:16:36.076Z,39.13
2023-05-01T11:19:02.479Z,38.93
2023-05-01T11:21:28.847Z,39.06
2023-05-01T11:23:55.194Z,38.83
2023-05-01T11:26:21.517Z,39.55
2023-05-01T11:28:47.877Z,39.07
2023-05-01T11:31:14.250Z,39.33
2023-05-01T11:33:40.614Z,39.22
2023-05-01T11:36:06.933Z,39.27
2023-05-01T11:38:33.298Z,39.14
2023-05-01T11:40:59.714Z,39.09
2023-05-01T11:43:26.057Z,39.13
2023-05-01T11:45:52.443Z,39.21
2023-05-01T11:48:18.852Z,39.28
2023-05-01T11:50:45.239Z,39.12
2023-05-01T11:53:11.581Z,39.17
2023-05-01T11:55:37.933Z,39.15
2023-05-01T11:58:04.259Z,39.48
2023-05-01T12:00:30.679Z,39.20
2023-05-01T12:02:57.214Z,39.23
2023-05-01T12:05:23.559Z,39.43
2023-05-01T12:07:49.867Z,39.34
2023-05-01T12:10:16.183Z,39.43
2023-05-01T12:12:42.569Z,39.80
2023-05-01T12:15:08.931Z,39.64
2023-05-01T12:17:35.507Z,39.80
2023-05-01T12:20:01.899Z,40.04
2023-05-01T12:22:28.200Z,40.25
2023-05-01T12:24:54.530Z,40.16
2023-05-01T12:27:20.847Z,40.08
2023-05-01T12:29:47.230Z,40.23
2023-05-01T12:32:13.572Z,40.35
2023-05-01T12:34:39.943Z,40.27
2023-05-01T12:37:06.271Z,40.34
2023-05-01T12:39:32.635Z,40.64
2023-05-01T12:41:58.970Z,40.55
2023-05-01T12:44:25.327Z,40.78
2023-05-01T12:46:51.703Z,40.51
2023-05-01T12:49:18.070Z,40.71
2023-05-01T12:51:44.448Z,40.97
2023-05-01T12:54:10.810Z,40.59
2023-05-01T12:56:37.168Z,40.74
2023-05-01T12:59:03.516Z,41.07
2023-05-01T13:01:29.849Z,41.09
2023-05-01T13:03:56.273Z,41.18
2023-05-01T13:06:22.714Z,41.37
2023-05-01T13:08:49.281Z,41.32
2023-05-01T13:11:15.606Z,41.38
2023-05-01T13:13:41.916Z,41.72
2023-05-01T13:16:08.421Z,41.47
2023-05-01T13:18:34.755Z,41.59
2023-05-01T13:21:01.119Z,41.85
2023-05-01T13:23:27.492Z,41.65
2023-05-01T13:25:53.794Z,41.65
2023-05-01T13:28:20.175Z,41.72
2023-05-01T13:30:46.483Z,41.76
2023-05-01T13:33:12.978Z,42.17
2023-05-01T13:35:39.404Z,41.71
2023-05-01T13:38:05.774Z,41.89
2023-05-01T13:40:32.076Z,41.76
2023-05-01T13:42:58.395Z,41.76
2023-05-01T13:45:24.756Z,42.09
2023-05-01T13:47:51.086Z,42.22
2023-05-01T13:50:17.391Z,42.25
2023-05-01T13:52:43.746Z,42.06
2023-05-01T13:55:10.071Z,42.08
2023-05-01T13:57:36.370Z,42.24
2023-05-01T14:00:02.698Z,42.03
2023-05-01T14:02:29.284Z,42.15
2023-05-01T14:04:57.050Z,41.80
2023-05-01T14:07:24.786Z,42.08
2023-05-01T14:09:51.124Z,42.04
2023-05-01T14:12:17.432Z,42.03
2023-05-01T14:14:43.798Z,42.08
2023-05-01T14:17:10.236Z,42.22
2023-05-01T14:19:36.665Z,42.22
2023-05-01T14:22:02.970Z,42.12
2023-05-01T14:24:29.299Z,42.03
2023-05-01T14:26:55.607Z,42.14
2023-05-01T14:29:21.900Z,42.43
2023-05-01T14:31:48.453Z,42.37
2023-05-01T14:34:14.969Z,42.35
2023-05-01T14:36:41.379Z,42.47
2023-05-01T14:39:07.692Z,42.50
2023-05-01T14:41:34.049Z,42.21
2023-05-01T14:44:00.435Z,42.38
2023-05-01T14:46:26.801Z,42.42
2023-05-01T14:48:53.228Z,42.32
2023-05-01T14:51:19.602Z,42.44
2023-05-01T14:53:45.986Z,42.33
2023-05-01T14:56:12.356Z,41.96
2023-05-01T14:58:38.746Z,42.24
2023-05-01T15:01:05.152Z,42.02
2023-05-01T15:03:31.728Z,41.94
2023-05-01T15:05:58.244Z,41.81
2023-05-01T15:08:24.641Z,41.71
2023-05-01T15:10:51.007Z,42.07
2023-05-01T15:13:17.329Z,41.57
2023-05-01T15:15:43.685Z,41.55
2023-05-01T15:18:10.054Z,41.63
2023-05-01T15:20:36.467Z,41.78
2023-05-01T15:23:02.786Z,41.47
2023-05-01T15:25:29.194Z,41.63
2023-05-01T15:27:55.498Z,41.40
2023-05-01T15:30:21.826Z,41.67
2023-05-01T15:32:48.344Z,41.54
2023-05-01T15:35:14.946Z,41.76
2023-05-01T15:37:41.305Z,41.26
2023-05-01T15:40:07.666Z,41.54
2023-05-01T15:42:33.974Z,41.75
2023-05-01T15:45:00.672Z,41.62
2023-05-01T15:47:27.188Z,41.34
2023-05-01T15:49:53.585Z,41.25
2023-05-01T15:52:19.900Z,41.23
2023-05-01T15:54:46.357Z,41.29
2023-05-01T15:57:12.706Z,41.37
2023-05-01T15:59:39.035Z,41.03
2023-05-01T16:02:05.446Z,41.04
2023-05-01T16:04:31.826Z,41.21
2023-05-01T16:06:58.203Z,40.88
2023-05-01T16:09:24.560Z,40.84
2023-05-01T16:11:50.869Z,41.03
2023-05-01T16:14:17.233Z,41.00
2023-05-01T16:16:43.653Z,40.70
2023-05-01T16:19:10.039Z,40.58
2023-05-01T16:21:36.355Z,40.58
2023-05-01T16:24:02.666Z,40.95
2023-05-01T16:26:29.083Z,40.71
2023-05-01T16:28:55.455Z,40.78
2023-05-01T16:31:27.528Z,40.52
2023-05-01T16:33:54.399Z,40.75
2023-05-01T16:36:20.743Z,40.46
2023-05-01T16:38:47.086Z,40.76
2023-05-01T16:41:13.462Z,40.51
2023-05-01T16:43:39.821Z,40.28
2023-05-01T16:46:06.205Z,40.52
2023-05-01T16:48:32.522Z,40.26
2023-05-01T16:50:58.833Z,40.43
2023-05-01T16:53:25.141Z,40.69
2023-05-01T16:55:51.462Z,40.51
2023-05-01T16:58:17.788Z,40.46
2023-05-01T17:00:44.246Z,40.42
2023-05-01T17:03:10.647Z,40.45
2023-05-01T17:05:37.191Z,40.67
2023-05-01T17:08:03.570Z,40.51
2023-05-01T17:10:29.884Z,40.66
2023-05-01T17:12:56.311Z,40.35
2023-05-01T17:15:22.625Z,40.62
2023-05-01T17:17:49.038Z,40.56
2023-05-01T17:20:15.458Z,40.29
2023-05-01T17:22:41.798Z,40.16
2023-05-01T17:25:08.165Z,40.40
2023-05-01T17:27:34.489Z,40.37
2023-05-01T17:30:01.007Z,40.33
2023-05-01T17:32:36.337Z,40.52
2023-05-01T17:35:03.492Z,40.27
2023-05-01T17:37:29.853Z,40.45
2023-05-01T17:39:56.332Z,40.32
2023-05-01T17:42:22.783Z,40.51
2023-05-01T17:44:49.133Z,40.27
2023-05-01T17:47:15.458Z,40.20
2023-05-01T17:49:41.784Z,40.45
2023-05-01T17:52:08.152Z,40.28
2023-05-01T17:54:34.603Z,40.28
2023-05-01T17:57:00.919Z,40.41
2023-05-01T17:59:27.224Z,40.57
2023-05-01T18:01:53.606Z,40.15
2023-05-01T18:04:20.177Z,40.44
2023-05-01T18:06:46.649Z,40.02
2023-05-01T18:09:13.340Z,40.26
2023-05-01T18:11:39.682Z,40.26
2023-05-01T18:14:05.987Z,40.33
2023-05-01T18:16:32.395Z,40.28
2023-05-01T18:18:58.740Z,40.29
2023-05-01T18:21:25.037Z,40.32
2023-05-01T18:23:51.351Z,40.51
2023-05-01T18:26:17.727Z,40.22
2023-05-01T18:28:44.890Z,40.38
2023-05-01T18:31:11.245Z,40.51
2023-05-01T18:33:37.649Z,40.22
2023-05-01T18:36:04.012Z,40.19
2023-05-01T18:38:30.313Z,40.33
2023-05-01T18:40:56.614Z,40.60
2023-05-01T18:43:22.917Z,40.34
2023-05-01T18:45:49.234Z,40.40
2023-05-01T18:48:15.779Z,40.29
2023-05-01T18:50:42.448Z,40.55
2023-05-01T18:53:09.844Z,40.20
2023-05-01T18:55:36.193Z,40.41
2023-05-01T18:58:02.493Z,40.45
2023-05-01T19:00:28.862Z,40.41
2023-05-01T19:02:57.293Z,40.41
2023-05-01T19:05:23.764Z,40.39
2023-05-01T19:07:50.126Z,40.50
2023-05-01T19:10:16.451Z,40.43
2023-05-01T19:12:42.784Z,40.17
2023-05-01T19:15:09.094Z,40.25
2023-05-01T19:17:35.421Z,40.57
2023-05-01T19:20:01.948Z,40.47
2023-05-01T19:22:28.545Z,40.12
2023-05-01T19:24:54.887Z,40.56
2023-05-01T19:27:21.218Z,40.48
2023-05-01T19:29:47.615Z,40.58
2023-05-01T19:32:14.051Z,40.28
2023-05-01T19:34:40.541Z,40.40
2023-05-01T19:37:06.891Z,40.43
2023-05-01T19:39:33.243Z,40.43
2023-05-01T19:41:59.584Z,40.48
2023-05-01T19:44:25.986Z,40.63
2023-05-01T19:46:52.301Z,40.19
2023-05-01T19:49:18.619Z,40.29
2023-05-01T19:51:44.964Z,40.25
2023-05-01T19:54:11.271Z,40.48
2023-05-01T19:56:37.640Z,40.37
2023-05-01T19:59:04.004Z,40.36
2023-05-01T20:01:30.331Z,40.28
2023-05-01T20:03:56.726Z,40.32
2023-05-01T20:06:23.153Z,40.55
2023-05-01T20:08:49.552Z,40.58
2023-05-01T20:11:15.858Z,40.27
2023-05-01T20:13:42.221Z,40.50
2023-05-01T20:16:08.602Z,40.58
2023-05-01T20:18:35.015Z,40.39
2023-05-01T20:21:01.413Z,40.69
2023-05-01T20:23:27.756Z,40.46
2023-05-01T20:25:54.149Z,40.75
2023-05-01T20:28:20.522Z,40.34
2023-05-01T20:30:46.848Z,40.57
2023-05-01T20:33:13.181Z,40.49
2023-05-01T20:35:39.708Z,40.50
2023-05-01T20:38:06.023Z,40.40
2023-05-01T20:40:32.386Z,40.51
2023-05-01T20:42:58.778Z,40.52
2023-05-01T20:45:25.092Z,40.36
2023-05-01T20:47:51.485Z,40.49
2023-05-01T20:50:17.868Z,40.45
2023-05-01T20:52:44.184Z,40.36
2023-05-01T20:55:10.530Z,40.62
2023-05-01T20:57:37.059Z,40.52
2023-05-01T21:00:03.605Z,40.32
2023-05-01T21:02:30.072Z,40.47
2023-05-01T21:04:56.482Z,40.41
2023-05-01T21:07:22.799Z,40.69
2023-05-01T21:09:49.095Z,40.47
2023-05-01T21:12:15.419Z,40.13
2023-05-01T21:14:41.734Z,40.74
2023-05-01T21:17:08.110Z,40.81
2023-05-01T21:19:34.490Z,40.39
2023-05-01T21:22:00.843Z,40.64
2023-05-01T21:24:27.208Z,40.57
2023-05-01T21:26:53.532Z,40.38
2023-05-01T21:29:19.899Z,40.36
2023-05-01T21:31:46.269Z,40.43
2023-05-01T21:34:12.642Z,40.64
2023-05-01T21:36:39.020Z,40.55
2023-05-01T21:39:07.516Z,40.56
2023-05-01T21:41:33.822Z,40.45
2023-05-01T21:44:00.167Z,40.53
2023-05-01T21:46:26.550Z,40.10
2023-05-01T21:48:52.890Z,40.51
2023-05-01T21:51:19.268Z,40.61
2023-05-01T21:53:45.774Z,40.44
2023-05-01T21:56:12.098Z,40.30
2023-05-01T21:58:38.404Z,40.42
2023-05-01T22:01:04.824Z,40.42
2023-05-01T22:03:31.320Z,40.66
2023-05-01T22:05:57.741Z,40.38
2023-05-01T22:08:24.099Z,40.53
2023-05-01T22:10:50.465Z,40.38
2023-05-01T22:13:16.933Z,40.53
2023-05-01T22:15:43.300Z,40.42
2023-05-01T22:18:09.658Z,40.54
2023-05-01T22:20:36.309Z,40.58
2023-05-01T22:23:02.617Z,40.38
2023-05-01T22:25:28.962Z,40.34
2023-05-01T22:27:55.277Z,40.37
2023-05-01T22:30:21.592Z,40.68
2023-05-01T22:32:47.963Z,40.45
2023-05-01T22:35:14.364Z,40.57
2023-05-01T22:37:40.687Z,40.16
2023-05-01T22:40:07.058Z,40.16
2023-05-01T22:42:33.393Z,40.68
2023-05-01T22:44:59.709Z,40.26
2023-05-01T22:47:26.061Z,40.28
2023-05-01T22:49:52.384Z,40.54
2023-05-01T22:52:18.712Z,40.17
2023-05-01T22:54:45.101Z,40.45
2023-05-01T22:57:11.408Z,40.18
2023-05-01T22:59:37.756Z,40.50
2023-05-01T23:02:04.393Z,40.44
2023-05-01T23:04:30.850Z,40.33
2023-05-01T23:06:57.150Z,40.08
2023-05-01T23:09:23.458Z,40.14
2023-05-01T23:11:49.771Z,40.38
2023-05-01T23:14:16.114Z,40.12
2023-05-01T23:16:42.475Z,40.20
2023-05-01T23:19:08.865Z,40.33
2023-05-01T23:21:35.225Z,40.31
2023-05-01T23:24:01.551Z,40.10
2023-05-01T23:26:27.850Z,40.50
2023-05-01T23:28:54.239Z,40.48
2023-05-01T23:31:20.604Z,40.09
2023-05-01T23:33:46.945Z,40.09
2023-05-01T23:36:13.270Z,40.13
2023-05-01T23:38:39.588Z,40.31
2023-05-01T23:41:05.929Z,40.23
2023-05-01T23:43:32.401Z,40.09
2023-05-01T23:45:58.714Z,40.05
2023-05-01T23:48:25.063Z,40.04
2023-05-01T23:50:51.461Z,40.39
2023-05-01T23:53:17.813Z,40.44
2023-05-01T23:55:46.002Z,40.33
2023-05-01T23:58:13.026Z,40.17
